This is the latest recevied weather packets stored in our database for station/object SR2GKG-13. If no packets are shown the sender has not sent any weather packets the latest 10 day(s).
| Time | Temp. | Humidity | Pressure | Rain* | Wind** | Luminosity | Snow |
|---|---|---|---|---|---|---|---|
| 1777527517 | 6.11° C | 50% | 1019.2 hPa | - | - | - | - |
| 1777526617 | 6.11° C | 53% | 1019.1 hPa | - | - | - | - |
| 1777525717 | 3.89° C | 65% | 1019.2 hPa | - | - | - | - |
| 1777524817 | 1.67° C | 72% | 1019.3 hPa | - | - | - | - |
| 1777523917 | 0.56° C | 75% | 1019.3 hPa | - | - | - | - |
| 1777523017 | 0° C | 75% | 1019.5 hPa | - | - | - | - |
| 1777522117 | -1.11° C | 76% | 1019.5 hPa | - | - | - | - |
| 1777521217 | -1.11° C | 77% | 1019.5 hPa | - | - | - | - |
| 1777520316 | -2.22° C | 79% | 1019.3 hPa | - | - | - | - |
| 1777519416 | -2.78° C | 80% | 1019.5 hPa | - | - | - | - |
| 1777518516 | -3.33° C | 81% | 1019.5 hPa | - | - | - | - |
| 1777517616 | -3.33° C | 80% | 1019.5 hPa | - | - | - | - |
| 1777516716 | -3.33° C | 80% | 1019.6 hPa | - | - | - | - |
| 1777515816 | -3.33° C | 80% | 1019.5 hPa | - | - | - | - |
| 1777514916 | -3.33° C | 79% | 1019.5 hPa | - | - | - | - |
| 1777514016 | -3.33° C | 79% | 1019.4 hPa | - | - | - | - |
| 1777513116 | -2.78° C | 79% | 1019.4 hPa | - | - | - | - |
| 1777512216 | -2.78° C | 78% | 1019.3 hPa | - | - | - | - |
| 1777511316 | -2.78° C | 77% | 1019.3 hPa | - | - | - | - |
| 1777510415 | -2.22° C | 77% | 1019.2 hPa | - | - | - | - |
| 1777509515 | -2.22° C | 77% | 1019.2 hPa | - | - | - | - |
| 1777508615 | -2.22° C | 74% | 1019.1 hPa | - | - | - | - |
| 1777507715 | -2.22° C | 73% | 1019.2 hPa | - | - | - | - |
| 1777506815 | -1.67° C | 73% | 1019.4 hPa | - | - | - | - |
| 1777505915 | -1.67° C | 73% | 1019.5 hPa | - | - | - | - |
* Rain since midnight (hover to see other rain measurements)
** Current wind speed in m/s (hover to see current wind gust speed)